Latest Weather Observations for Oodnadatta

IDS60801

Issued at 11:02 pm CDT Saturday 28 February 2015 (issued every 30 minutes, with the page automatically refreshed every 10 minutes)

About weather observations | Map of weather stations | Latest weather observations for SA | Other Formats
Station Details ID: 017043 Name: OODNADATTA AIRPORT Lat: -27.56 Lon: 135.45 Height: 116.5 m
Data from the previous 72 hours. | See also: Recent months at Oodnadatta
Date/Time
CDT
Temp
°C
App
Temp
°C
Dew
Point
Rel
Hum
%
Delta-T
°C
Wind Press
QNH
hPa
Press
MSL
hPa
Rain
since 9 am
mm
Dir
 
Spd
km/h
Gust
km/h
Spd
kts
Gust
kts
28/11:00pm 33.8 30.4 13.8 30 12.3 SSW 24 32 13 17 1006.9 - 0.0
28/10:30pm 33.8 31.6 14.3 31 12.0 SSW 19 26 10 14 1006.9 - 0.0
28/10:00pm 34.1 31.4 14.6 31 12.1 SSW 22 28 12 15 1006.7 - 0.0
28/09:30pm 34.7 31.1 11.8 25 13.7 SSW 22 30 12 16 1006.5 - 0.0
28/09:00pm 35.0 30.7 9.4 21 14.8 S 22 28 12 15 1006.0 1005.2 0.0
28/08:30pm 35.3 30.3 8.2 19 15.3 S 24 30 13 16 1005.7 - 0.0
28/08:00pm 35.7 30.0 8.5 19 15.5 S 28 37 15 20 1005.4 - 0.0
28/07:30pm 36.3 29.0 7.4 17 16.2 S 35 43 19 23 1004.9 - 0.0
28/07:00pm 36.8 28.9 7.8 17 16.4 SSW 39 46 21 25 1004.7 - 0.0
28/06:30pm 37.2 29.7 8.1 17 16.6 SSW 37 48 20 26 1004.4 - 0.0
28/06:00pm 38.6 30.9 5.3 13 18.4 SW 35 54 19 29 1003.9 1003.1 0.0
28/05:57pm 38.9 32.3 4.4 12 18.8 SW 28 48 15 26 1004.1 - 0.0
28/05:30pm 39.4 34.2 2.2 10 19.6 SW 19 24 10 13 1004.2 - 0.0
28/05:00pm 39.5 34.4 0.8 9 20.0 SW 17 26 9 14 1004.2 - 0.0
28/04:30pm 39.6 34.7 2.3 10 19.7 WSW 17 24 9 13 1004.3 - 0.0
28/04:00pm 39.2 33.6 3.4 11 19.2 SSW 22 37 12 20 1004.5 - 0.0
28/03:30pm 39.6 34.9 0.9 9 20.0 WSW 15 22 8 12 1004.7 - 0.0
28/03:00pm 39.3 34.3 -1.0 8 20.3 W 15 22 8 12 1004.9 1004.1 0.0
28/02:30pm 39.1 35.1 0.5 9 19.8 WNW 11 19 6 10 1005.3 - 0.0
28/02:00pm 38.8 35.7 0.3 9 19.6 NW 6 11 3 6 1005.5 - 0.0
28/01:30pm 38.3 34.2 -0.1 9 19.4 N 11 19 6 10 1005.8 - 0.0
28/01:00pm 37.2 32.4 0.5 10 18.6 N 15 22 8 12 1006.1 - 0.0
28/12:30pm 37.6 32.3 2.1 11 18.5 N 19 35 10 19 1006.2 - 0.0
28/12:00pm 38.4 32.7 2.8 11 18.9 NNE 22 32 12 17 1006.4 1005.6 0.0
28/11:30am 35.8 30.1 3.1 13 17.1 NNE 22 28 12 15 1006.6 - 0.0
28/11:00am 34.1 28.6 3.8 15 15.9 NNE 22 28 12 15 1006.7 - 0.0
28/10:30am 33.1 27.8 4.8 17 15.0 NNE 22 30 12 16 1006.8 - 0.0
28/10:00am 32.1 27.1 4.8 18 14.4 NNE 20 24 11 13 1006.4 - 0.0
28/09:30am 31.6 26.7 5.2 19 14.0 NNE 20 28 11 15 1006.2 - 0.0
28/09:00am 30.5 28.2 5.0 20 13.4 N 6 7 3 4 1006.2 1005.4 0.0
28/08:30am 29.7 26.8 4.4 20 13.1 N 9 13 5 7 1006.2 - 0.0
28/08:00am 29.3 26.4 4.7 21 12.7 NNE 9 15 5 8 1005.8 - 0.0
28/07:30am 28.1 25.1 2.3 19 12.7 NNE 7 11 4 6 1005.4 - 0.0
28/07:00am 28.0 24.9 1.5 18 12.9 NE 7 7 4 4 1005.0 - 0.0
28/06:30am 27.5 24.4 1.1 18 12.7 NNE 7 9 4 5 1004.7 - 0.0
28/06:00am 27.4 23.9 1.0 18 12.7 N 9 13 5 7 1004.6 1003.8 0.0
28/05:30am 28.4 24.5 1.0 17 13.2 NNE 11 13 6 7 1004.4 - 0.0
28/05:00am 28.1 23.6 -0.1 16 13.3 NE 13 15 7 8 1004.2 - 0.0
28/04:30am 29.2 25.6 0.8 16 13.7 NE 9 11 5 6 1004.0 - 0.0
28/04:00am 29.9 25.5 0.5 15 14.3 NE 13 17 7 9 1003.9 - 0.0
28/03:30am 30.5 26.4 0.0 14 14.7 ENE 11 15 6 8 1004.0 - 0.0
28/03:00am 30.7 26.1 -0.8 13 15.0 ENE 13 15 7 8 1004.4 1003.6 0.0
28/02:30am 31.3 27.0 -1.5 12 15.5 ENE 11 11 6 6 1004.7 - 0.0
28/02:00am 31.8 27.0 -2.3 11 15.9 ENE 13 15 7 8 1005.0 - 0.0
28/01:30am 32.3 26.8 -1.9 11 16.1 NE 17 20 9 11 1005.1 - 0.0
28/01:00am 32.5 27.4 -1.7 11 16.2 NE 15 19 8 10 1005.1 - 0.0
28/12:30am 32.5 26.7 -1.7 11 16.2 ENE 19 22 10 12 1004.9 - 0.0
28/12:00am 32.6 26.8 -1.7 11 16.3 ENE 19 22 10 12 1005.2 1004.4 0.0
 
Date/Time
CDT
Temp
°C
App
Temp
°C
Dew
Point
Rel
Hum
%
Delta-T
°C
Wind Press
QNH
hPa
Press
MSL
hPa
Rain
since 9 am
mm
Dir
 
Spd
km/h
Gust
km/h
Spd
kts
Gust
kts
27/11:30pm 32.6 26.8 -1.7 11 16.3 ENE 19 24 10 13 1005.1 - 0.0
27/11:00pm 33.1 27.2 -2.6 10 16.8 ENE 19 22 10 12 1005.3 - 0.0
27/10:30pm 33.5 27.6 -2.3 10 16.9 ENE 19 22 10 12 1005.2 - 0.0
27/10:00pm 33.7 29.0 -2.1 10 17.0 ENE 13 15 7 8 1005.3 - 0.0
27/09:30pm 34.7 29.7 -1.4 10 17.5 E 15 19 8 10 1005.1 - 0.0
27/09:00pm 35.5 30.9 -0.8 10 17.9 ENE 13 15 7 8 1004.9 1004.1 0.0
27/08:30pm 36.1 32.2 -1.7 9 18.4 E 9 11 5 6 1004.7 - 0.0
27/08:00pm 37.2 33.8 -0.9 9 18.9 ENE 7 9 4 5 1004.5 - 0.0
27/07:30pm 37.9 33.8 -0.4 9 19.2 NE 11 17 6 9 1004.4 - 0.0
27/07:00pm 38.3 35.3 -1.7 8 19.7 N 4 7 2 4 1004.2 - 0.0
27/06:30pm 38.6 35.1 -1.5 8 19.9 N 7 13 4 7 1004.1 - 0.0
27/06:00pm 38.9 34.6 -1.3 8 20.1 N 11 19 6 10 1004.1 1003.3 0.0
27/05:30pm 38.7 35.4 -1.4 8 19.9 SW 6 9 3 5 1004.1 - 0.0
27/05:00pm 39.1 35.3 -1.1 8 20.1 NE 9 15 5 8 1004.4 - 0.0
27/04:30pm 38.8 34.9 -1.4 8 20.0 NW 9 19 5 10 1004.7 - 0.0
27/04:00pm 38.0 34.6 -1.9 8 19.6 NE 6 11 3 6 1005.0 - 0.0
27/03:30pm 38.1 34.0 -0.3 9 19.3 NE 11 22 6 12 1005.5 - 0.0
27/03:00pm 37.6 33.8 -0.6 9 19.1 ENE 9 17 5 9 1005.8 1005.0 0.0
27/02:30pm 37.5 32.9 -0.7 9 19.0 NNE 13 20 7 11 1006.3 - 0.0
27/02:00pm 37.1 32.5 -1.0 9 18.9 E 13 30 7 16 1006.8 - 0.0
27/01:30pm 37.0 32.0 -1.1 9 18.8 NNE 15 26 8 14 1007.4 - 0.0
27/01:00pm 36.4 31.9 -0.1 10 18.2 NNE 13 24 7 13 1007.6 - 0.0
27/12:30pm 36.3 31.1 -0.2 10 18.2 N 17 32 9 17 1008.2 - 0.0
27/12:00pm 35.7 30.0 -0.6 10 18.0 NE 19 32 10 17 1008.5 1007.7 0.0
27/11:30am 35.1 29.0 0.2 11 17.4 NE 22 30 12 16 1008.8 - 0.0
27/11:00am 34.7 28.1 -0.1 11 17.2 NE 24 32 13 17 1009.0 - 0.0
27/10:30am 33.5 26.8 1.3 13 16.2 NE 26 33 14 18 1009.0 - 0.0
27/10:00am 32.9 26.1 0.9 13 15.9 NE 26 33 14 18 1008.7 - 0.0
27/09:30am 31.3 24.8 0.6 14 15.0 NE 24 30 13 16 1008.8 - 0.0
27/09:00am 30.2 25.6 1.6 16 14.2 NNE 15 22 8 12 1008.5 1007.7 0.0
27/08:30am 28.0 23.8 1.5 18 12.9 NE 13 17 7 9 1008.2 - 0.0
27/08:00am 23.8 21.1 0.2 21 10.9 ENE 4 6 2 3 1007.9 - 0.0
27/07:30am 24.7 22.1 0.9 21 11.2 ENE 4 7 2 4 1007.8 - 0.0
27/07:00am 22.0 19.2 -0.1 23 10.0 ENE 4 7 2 4 1007.5 - 0.0
27/06:30am 23.2 19.4 -1.0 20 10.8 ENE 9 11 5 6 1007.3 - 0.0
27/06:00am 23.6 20.3 0.0 21 10.8 ESE 7 7 4 4 1006.9 1006.1 0.0
27/05:30am 23.4 20.2 -0.8 20 10.9 E 6 9 3 5 1006.6 - 0.0
27/05:00am 23.6 20.2 -0.6 20 10.9 ENE 7 9 4 5 1006.2 - 0.0
27/04:30am 24.0 19.8 -1.0 19 11.3 ENE 11 13 6 7 1006.1 - 0.0
27/04:00am 24.6 19.6 -1.3 18 11.7 ENE 15 17 8 9 1006.2 - 0.0
27/03:30am 24.7 20.8 -1.2 18 11.7 E 9 11 5 6 1006.5 - 0.0
27/03:00am 24.9 20.7 -1.0 18 11.8 E 11 13 6 7 1006.8 1006.0 0.0
27/02:30am 25.6 21.4 -1.2 17 12.2 E 11 13 6 7 1006.9 - 0.0
27/02:00am 26.9 22.7 -1.0 16 12.9 ENE 11 13 6 7 1007.1 - 0.0
27/01:30am 28.0 23.0 -1.0 15 13.5 E 15 19 8 10 1007.4 - 0.0
27/01:00am 28.7 23.3 -1.4 14 14.0 E 17 19 9 10 1007.6 - 0.0
27/12:30am 29.0 24.0 -1.2 14 14.1 E 15 17 8 9 1007.7 - 0.0
27/12:00am 30.0 24.2 -1.4 13 14.7 E 19 20 10 11 1007.8 1007.0 0.0
 
Date/Time
CDT
Temp
°C
App
Temp
°C
Dew
Point
Rel
Hum
%
Delta-T
°C
Wind Press
QNH
hPa
Press
MSL
hPa
Rain
since 9 am
mm
Dir
 
Spd
km/h
Gust
km/h
Spd
kts
Gust
kts
26/11:30pm 30.8 24.8 -1.9 12 15.3 E 20 22 11 12 1008.1 - 0.0
26/11:00pm 31.1 25.1 -2.8 11 15.6 E 19 20 10 11 1008.0 - 0.0
26/10:30pm 31.8 25.9 -2.3 11 15.9 ESE 19 24 10 13 1007.9 - 0.0
26/10:00pm 31.7 26.0 -3.6 10 16.1 ESE 17 19 9 10 1007.9 - 0.0
26/09:30pm 32.7 27.7 -4.3 9 16.8 SE 13 17 7 9 1007.7 - 0.0
26/09:00pm 33.5 28.6 -3.7 9 17.2 SE 13 15 7 8 1007.2 1006.4 0.0
26/08:30pm 35.5 30.2 -3.8 8 18.4 SSE 15 19 8 10 1007.1 - 0.0
26/08:00pm 36.6 31.0 -3.0 8 18.9 SSE 17 22 9 12 1006.9 - 0.0
26/07:30pm 37.5 31.8 -4.1 7 19.7 SSE 17 28 9 15 1006.7 - 0.0
26/07:00pm 38.0 32.7 -3.7 7 19.9 SSE 15 22 8 12 1006.5 - 0.0
26/06:30pm 38.0 32.7 -3.7 7 19.9 SSE 15 28 8 15 1006.3 - 0.0
26/06:00pm 38.5 32.5 -3.4 7 20.2 S 19 24 10 13 1006.2 1005.4 0.0
26/05:30pm 38.5 32.3 -3.4 7 20.2 SSE 20 33 11 18 1006.2 - 0.0
26/05:00pm 38.7 33.8 -3.2 7 20.2 ESE 13 20 7 11 1006.4 - 0.0
26/04:30pm 38.3 34.4 -1.7 8 19.7 SSE 9 20 5 11 1006.6 - 0.0
26/04:00pm 38.2 33.1 -1.8 8 19.7 S 15 39 8 21 1006.8 - 0.0
26/03:30pm 38.1 32.6 -1.9 8 19.6 S 17 28 9 15 1007.1 - 0.0
26/03:00pm 37.1 32.7 -2.6 8 19.2 S 11 20 6 11 1007.6 1006.8 0.0
26/02:30pm 36.6 32.0 -1.4 9 18.6 S 13 20 7 11 1008.1 - 0.0
26/02:00pm 37.1 31.7 -1.0 9 18.9 S 17 30 9 16 1008.6 - 0.0
26/01:30pm 35.8 31.1 -2.0 9 18.3 SE 13 26 7 14 1009.2 - 0.0
26/01:00pm 35.3 31.1 -0.9 10 17.7 SSE 11 24 6 13 1009.6 - 0.0
26/12:30pm 35.6 31.0 -0.7 10 17.9 ESE 13 26 7 14 1009.9 - 0.0
26/12:00pm 35.8 30.9 -0.5 10 18.0 ESE 15 20 8 11 1010.2 1009.5 0.0
26/11:30am 35.4 31.4 0.5 11 17.5 E 11 20 6 11 1010.4 - 0.0
26/11:00am 34.0 28.9 0.6 12 16.6 ESE 17 30 9 16 1010.6 - 0.0
26/10:30am 33.4 28.9 2.3 14 15.9 E 15 24 8 13 1010.6 - 0.0
26/10:00am 31.2 27.5 2.4 16 14.5 ENE 11 13 6 7 1010.5 - 0.0
26/09:30am 28.9 25.9 2.2 18 13.2 E 7 11 4 6 1010.5 - 0.0
26/09:00am 26.5 23.3 1.0 19 12.2 SE 7 9 4 5 1010.4 1009.7 0.0
26/08:30am 23.5 20.1 -2.2 18 11.3 S 6 7 3 4 1010.4 - 0.0
26/08:00am 21.4 17.4 -2.5 20 10.2 S 9 11 5 6 1010.2 - 0.0
26/07:30am 21.3 17.0 -1.9 21 10.0 S 11 13 6 7 1010.0 - 0.0
26/07:00am 21.9 17.9 -2.0 20 10.4 SSW 9 11 5 6 1009.8 - 0.0
26/06:30am 22.1 18.7 -1.9 20 10.5 SSW 6 7 3 4 1009.6 - 0.0
26/06:00am 22.4 18.9 -1.6 20 10.6 SSW 7 9 4 5 1009.5 1008.7 0.0
26/05:30am 22.9 19.4 -1.2 20 10.7 SSW 7 9 4 5 1009.5 - 0.0
26/05:00am 22.9 19.3 0.7 23 10.2 SSW 9 13 5 7 1009.4 - 0.0
26/04:30am 23.7 21.9 1.4 23 10.5 CALM 0 0 0 0 1009.2 - 0.0
26/04:00am 24.7 23.0 1.6 22 11.0 CALM 0 0 0 0 1009.2 - 0.0
26/03:30am 25.0 23.2 1.2 21 11.3 CALM 0 2 0 1 1009.4 - 0.0
26/03:00am 24.8 21.8 1.7 22 11.0 S 7 7 4 4 1009.3 1008.5 0.0
26/02:30am 26.1 23.3 2.1 21 11.6 S 6 6 3 3 1009.1 - 0.0
26/02:00am 26.4 22.2 1.7 20 11.9 S 13 15 7 8 1009.3 - 0.0
26/01:30am 27.7 24.3 2.0 19 12.6 SSE 9 13 5 7 1009.5 - 0.0
26/01:00am 27.4 24.4 1.0 18 12.7 SSE 6 9 3 5 1009.7 - 0.0
26/12:30am 28.0 24.5 1.5 18 12.9 SSE 9 11 5 6 1009.9 - 0.0
26/12:00am 29.0 25.2 1.5 17 13.5 S 11 13 6 7 1009.8 1009.0 0.0
 
Date/Time
CDT
Temp
°C
App
Temp
°C
Dew
Point
Rel
Hum
%
Delta-T
°C
Wind Press
QNH
hPa
Press
MSL
hPa
Rain
since 9 am
mm
Dir
 
Spd
km/h
Gust
km/h
Spd
kts
Gust
kts
25/11:30pm 30.3 25.7 1.7 16 14.2 S 15 17 8 9 1010.1 - 0.0

Other Formats:

Comma delimited format used in spreadsheet applications
http://www.bom.gov.au/fwo/IDS60801/IDS60801.94476.axf

JavaScript Object Notation format (JSON) in row-major order
http://www.bom.gov.au/fwo/IDS60801/IDS60801.94476.json